Time;durP1;ratioP1;P1;durP2;ratioP2;P2;SDS_P1;SDS_P2;PMS_P1;PMS_P2;Temp;Humidity;BMP_temperature;BMP_pressure;BME280_temperature;BME280_humidity;BME280_pressure;Samples;Min_cycle;Max_cycle;Signal;HPM_P1;HPM_P2
2022/11/25 00:01:24;;;;;;;14.37;9.00;;;8.10;71.40;;;-142.21;100.00;112049.66;5069619;28;20487;-70
2022/11/25 00:03:53;;;;;;;16.57;8.63;;;8.10;71.60;;;-142.21;100.00;112049.66;5070825;28;20548;-70
2022/11/25 00:06:25;;;;;;;13.23;7.53;;;8.10;71.30;;;-142.21;100.00;112049.66;5069584;28;20446;-71
2022/11/25 00:08:57;;;;;;;13.07;8.13;;;8.10;71.30;;;-142.21;100.00;112049.66;5070950;28;20953;-71
2022/11/25 00:11:25;;;;;;;14.00;7.23;;;8.10;71.50;;;-142.21;100.00;112049.66;5069825;28;20439;-71
2022/11/25 00:13:53;;;;;;;16.90;8.40;;;8.10;71.30;;;-142.21;99.63;112049.66;5070479;28;20463;-71
2022/11/25 00:16:23;;;;;;;12.10;8.13;;;8.10;71.10;;;-142.21;99.97;112049.66;5070584;28;20542;-71
2022/11/25 00:18:52;;;;;;;14.60;7.93;;;8.10;71.20;;;-142.21;99.93;112049.66;5070974;28;20546;-71
2022/11/25 00:21:23;;;;;;;12.13;8.60;;;8.10;71.30;;;-142.21;100.00;112049.66;5070719;28;20471;-72
2022/11/25 00:23:56;;;;;;;14.13;8.73;;;8.10;71.20;;;-142.21;100.00;112049.66;5070541;28;20495;-71
2022/11/25 00:26:26;;;;;;;16.80;8.93;;;8.10;71.40;;;-142.21;99.88;112049.66;5069743;28;20440;-71
2022/11/25 00:28:57;;;;;;;13.60;8.37;;;8.10;71.30;;;-142.21;100.00;112049.66;5070392;28;20530;-70
2022/11/25 00:31:28;;;;;;;14.53;8.67;;;8.10;71.40;;;-142.21;100.00;112049.66;5070297;28;20973;-70
2022/11/25 00:33:56;;;;;;;15.37;9.23;;;8.10;71.60;;;-142.21;100.00;112049.66;5070959;28;20435;-71
2022/11/25 00:36:27;;;;;;;16.03;9.03;;;8.20;71.60;;;-142.21;100.00;112049.66;5070130;28;20479;-71
2022/11/25 00:38:58;;;;;;;16.97;8.80;;;8.10;71.60;;;-142.21;100.00;112049.66;5070194;28;20437;-71
2022/11/25 00:46:59;;;;;;;13.43;7.63;;;8.10;71.30;;;-142.21;100.00;112049.66;5070737;28;20435;-71
2022/11/25 00:49:26;;;;;;;10.80;7.37;;;8.10;71.50;;;-142.21;100.00;112049.66;5069835;28;20493;-71
2022/11/25 00:51:54;;;;;;;13.53;8.17;;;8.10;71.40;;;-142.21;100.00;112049.66;5070287;28;20530;-71
2022/11/25 00:54:22;;;;;;;10.30;7.40;;;8.10;71.60;;;-142.21;100.00;112049.66;5069783;28;21044;-71
2022/11/25 00:56:50;;;;;;;15.60;8.03;;;8.10;71.60;;;-142.21;100.00;112049.66;5070154;28;20526;-71
2022/11/25 00:59:20;;;;;;;13.13;8.17;;;8.10;71.60;;;-142.21;100.00;112049.66;5068686;28;20956;-71
2022/11/25 01:01:47;;;;;;;11.83;7.90;;;8.10;71.60;;;-142.21;100.00;112049.66;5071653;28;20882;-71
2022/11/25 01:04:16;;;;;;;12.87;8.27;;;8.10;71.60;;;-142.21;100.00;112049.66;5073379;28;20571;-71
2022/11/25 01:06:44;;;;;;;14.73;8.33;;;8.10;71.60;;;-142.21;100.00;112049.66;5073983;28;20943;-71
2022/11/25 01:09:13;;;;;;;13.17;7.80;;;8.20;71.70;;;-142.21;100.00;112049.66;5073931;28;20553;-71
2022/11/25 01:11:41;;;;;;;12.60;8.10;;;8.20;72.00;;;-142.21;100.00;112049.66;5073962;28;20443;-71
2022/11/25 01:14:09;;;;;;;10.83;7.97;;;8.20;71.80;;;-142.21;100.00;112049.66;5073408;28;21003;-70
2022/11/25 01:16:37;;;;;;;10.63;7.60;;;8.20;72.30;;;-142.21;100.00;112049.66;5073430;28;20534;-71
2022/11/25 01:19:04;;;;;;;11.43;7.20;;;8.20;72.30;;;-142.21;100.00;112049.66;5073854;28;20466;-71
2022/11/25 01:21:34;;;;;;;10.60;7.53;;;8.20;72.50;;;-142.21;100.00;112049.66;5073744;28;20906;-71
2022/11/25 01:24:03;;;;;;;9.80;7.13;;;8.30;72.60;;;-142.21;100.00;112049.66;5073161;28;22441;-72
2022/11/25 01:26:35;;;;;;;10.10;6.87;;;8.30;72.60;;;-142.21;100.00;112049.66;5073055;28;20523;-71
2022/11/25 01:29:07;;;;;;;9.60;6.77;;;8.30;72.70;;;-142.21;100.00;112049.66;5074733;28;20465;-71
2022/11/25 01:31:37;;;;;;;8.77;7.03;;;8.30;73.10;;;-142.21;100.00;112049.66;5073330;28;20550;-71
2022/11/25 01:34:08;;;;;;;11.13;6.17;;;8.30;73.80;;;-142.21;100.00;112049.66;5073747;28;20444;-70
2022/11/25 01:36:35;;;;;;;10.83;6.57;;;8.40;73.20;;;-142.21;100.00;112049.66;5072647;28;20463;-70
2022/11/25 01:39:04;;;;;;;7.50;5.50;;;8.40;73.20;;;-142.21;100.00;112049.66;5072869;28;20531;-71
2022/11/25 01:41:34;;;;;;;8.03;5.10;;;8.40;73.30;;;-142.21;100.00;112049.66;5073094;28;20532;-71
2022/11/25 01:44:16;;;;;;;8.60;4.90;;;8.50;73.70;;;-142.21;100.00;112049.66;5073377;28;20475;-70
2022/11/25 01:46:51;;;;;;;4.73;3.10;;;8.50;74.00;;;-142.21;100.00;112049.66;5073389;28;20470;-70
2022/11/25 01:49:25;;;;;;;4.73;3.10;;;8.50;74.50;;;-142.21;100.00;112049.66;5037344;28;20442;-71
2022/11/25 01:52:00;;;;;;;7.13;2.80;;;8.50;74.80;;;-142.21;100.00;112049.66;5068637;28;20522;-71
2022/11/25 01:54:35;;;;;;;6.20;2.50;;;8.50;75.20;;;-142.21;100.00;112049.66;5072244;28;20477;-71
2022/11/25 01:57:11;;;;;;;4.00;2.80;;;8.40;75.20;;;-142.21;100.00;112049.66;5073276;28;20537;-71
2022/11/25 01:59:46;;;;;;;6.40;3.00;;;8.50;75.40;;;-142.21;100.00;112049.66;5072879;28;20463;-70
2022/11/25 02:02:15;;;;;;;6.87;3.40;;;8.60;76.00;;;-142.21;100.00;112049.66;5072325;28;20550;-70
2022/11/25 02:04:45;;;;;;;7.00;2.93;;;8.60;74.90;;;-142.21;100.00;112049.66;5072738;28;21002;-70
2022/11/25 02:07:22;;;;;;;3.43;2.83;;;8.70;74.80;;;-142.21;100.00;112049.66;5072567;28;20470;-70
2022/11/25 02:09:55;;;;;;;4.73;3.00;;;8.70;74.70;;;-142.21;100.00;112049.66;5072690;28;20978;-70
2022/11/25 02:12:23;;;;;;;10.27;3.90;;;8.70;74.70;;;-142.21;100.00;112049.66;5071579;28;20493;-70
2022/11/25 02:14:55;;;;;;;7.47;3.40;;;8.70;74.50;;;-142.21;100.00;112049.66;5071725;28;20981;-71
2022/11/25 02:17:22;;;;;;;6.70;3.40;;;8.80;74.60;;;-142.21;100.00;112049.66;5072364;28;20464;-71
2022/11/25 02:20:02;;;;;;;7.37;3.20;;;8.80;74.20;;;-142.21;100.00;112049.66;5072463;28;21014;-71
2022/11/25 02:22:48;;;;;;;7.10;2.90;;;8.90;74.30;;;-142.21;100.00;112049.66;5071396;28;20939;-71
2022/11/25 02:25:23;;;;;;;5.30;2.93;;;8.90;74.10;;;-142.21;100.00;112049.66;5072112;28;20574;-71
2022/11/25 02:27:56;;;;;;;6.37;2.73;;;9.00;74.30;;;-142.21;100.00;112049.66;5072114;28;20492;-71
2022/11/25 02:30:23;;;;;;;7.33;3.47;;;8.90;74.20;;;-142.21;100.00;112049.66;5069715;28;20448;-71
2022/11/25 02:32:54;;;;;;;4.73;3.10;;;8.90;73.90;;;-142.21;100.00;112049.66;5072457;28;20453;-71
2022/11/25 02:35:34;;;;;;;6.27;3.37;;;8.90;73.80;;;-142.21;100.00;112049.66;5071734;28;20843;-71
2022/11/25 02:38:08;;;;;;;6.87;2.90;;;8.90;73.80;;;-142.21;100.00;112049.66;5071569;28;20534;-71
2022/11/25 02:40:45;;;;;;;4.20;2.70;;;8.90;73.90;;;-142.21;100.00;112049.66;5071965;28;20459;-70
2022/11/25 02:43:14;;;;;;;4.97;2.77;;;8.90;74.10;;;-142.21;100.00;112049.66;5072054;28;20522;-71
2022/11/25 02:45:59;;;;;;;7.87;3.03;;;8.90;74.10;;;-142.21;100.00;112049.66;5052274;28;20890;-71
2022/11/25 02:48:31;;;;;;;5.17;2.80;;;8.90;74.20;;;-142.21;100.00;112049.66;5051466;28;20519;-70
2022/11/25 02:50:58;;;;;;;4.57;2.67;;;8.80;74.10;;;-142.21;100.00;112049.66;5059657;28;20531;-70
2022/11/25 02:53:26;;;;;;;2.77;2.40;;;8.80;74.20;;;-142.21;100.00;112049.66;5071308;28;20477;-70
2022/11/25 02:55:55;;;;;;;4.30;2.70;;;8.80;74.20;;;-142.21;100.00;112049.66;5072042;28;20447;-70
2022/11/25 02:58:22;;;;;;;5.37;3.17;;;8.80;74.20;;;-142.21;100.00;112049.66;5071609;28;20530;-70
2022/11/25 03:00:50;;;;;;;4.03;2.83;;;8.70;74.20;;;-142.21;100.00;112049.66;5052875;28;20534;-70
2022/11/25 03:03:18;;;;;;;4.97;2.70;;;8.70;74.30;;;-142.21;100.00;112049.66;5072149;28;20440;-71
2022/11/25 03:05:45;;;;;;;5.40;2.87;;;8.70;74.40;;;-142.21;100.00;112049.66;5071565;28;20577;-70
2022/11/25 03:08:14;;;;;;;5.27;2.80;;;8.70;74.30;;;-142.21;100.00;112049.66;5072156;28;20487;-70
2022/11/25 03:10:42;;;;;;;3.77;2.57;;;8.70;74.40;;;-142.21;100.00;112049.66;5070937;28;20454;-69
2022/11/25 03:13:12;;;;;;;6.77;2.77;;;8.70;74.20;;;-142.21;100.00;112049.66;5071707;28;20447;-70
2022/11/25 03:15:39;;;;;;;3.43;2.40;;;8.70;74.20;;;-142.21;100.00;112049.66;5070830;28;20581;-70
2022/11/25 03:18:07;;;;;;;6.17;2.90;;;8.70;74.10;;;-142.21;100.00;112049.66;5071311;28;20529;-71
2022/11/25 03:20:35;;;;;;;3.67;2.47;;;8.60;74.10;;;-142.21;100.00;112049.66;5070142;28;20530;-71
2022/11/25 03:23:03;;;;;;;4.67;2.70;;;8.70;74.30;;;-142.21;100.00;112049.66;5071413;28;20539;-70
2022/11/25 03:25:31;;;;;;;5.30;2.67;;;8.70;74.40;;;-142.21;100.00;112049.66;5070632;28;20494;-71
2022/11/25 03:27:58;;;;;;;6.87;3.40;;;8.60;74.30;;;-142.21;100.00;112049.66;5071051;28;20500;-71
2022/11/25 03:30:29;;;;;;;3.47;2.80;;;8.60;74.40;;;-142.21;100.00;112049.66;5070432;28;20444;-71
2022/11/25 03:32:56;;;;;;;4.70;3.00;;;8.60;74.50;;;-142.21;100.00;112049.66;5071174;28;20600;-71
2022/11/25 03:35:23;;;;;;;3.97;2.80;;;8.50;74.00;;;-142.21;100.00;112049.66;5070383;28;20988;-71
2022/11/25 03:37:50;;;;;;;3.53;2.70;;;8.50;73.80;;;-142.21;100.00;112049.66;5071402;28;20486;-71
2022/11/25 03:40:18;;;;;;;4.47;2.90;;;8.50;73.60;;;-142.21;100.00;112049.66;5071277;28;20458;-71
2022/11/25 03:42:45;;;;;;;4.37;2.43;;;8.40;73.50;;;-142.21;100.00;112049.66;5071207;28;20451;-71
2022/11/25 03:45:15;;;;;;;4.53;2.30;;;8.40;73.50;;;-142.21;100.00;112049.66;5071274;28;20567;-70
2022/11/25 03:47:44;;;;;;;4.23;2.47;;;8.40;73.60;;;-142.21;100.00;112049.66;5070546;28;20546;-71
2022/11/25 03:50:14;;;;;;;4.27;2.50;;;8.30;73.60;;;-142.21;100.00;112049.66;5070835;28;20538;-71
2022/11/25 03:52:41;;;;;;;3.80;2.90;;;8.30;73.60;;;-142.21;100.00;112049.66;5070568;28;20451;-71
2022/11/25 03:55:11;;;;;;;5.20;2.73;;;8.30;73.40;;;-142.21;100.00;112049.66;5071075;28;20534;-71
2022/11/25 03:57:39;;;;;;;3.07;2.50;;;8.20;73.60;;;-142.21;100.00;112049.66;5070601;28;20501;-70
2022/11/25 04:00:09;;;;;;;5.13;2.73;;;8.10;73.50;;;-142.21;100.00;112049.66;5071527;28;20530;-71
2022/11/25 04:02:36;;;;;;;4.03;3.07;;;8.20;73.60;;;-142.21;100.00;112049.66;5070234;28;20509;-71
2022/11/25 04:05:06;;;;;;;4.43;2.90;;;8.20;73.60;;;-142.21;100.00;112049.66;5070982;28;20562;-71
2022/11/25 04:07:33;;;;;;;3.13;2.40;;;8.20;73.60;;;-142.21;100.00;112049.66;5070618;28;20868;-71
2022/11/25 04:10:00;;;;;;;6.37;3.47;;;8.10;73.40;;;-142.21;100.00;112049.66;5071225;28;20530;-71
2022/11/25 04:15:12;;;;;;;3.63;2.57;;;8.10;73.10;;;-142.21;100.00;112049.66;5070764;28;20438;-70
2022/11/25 04:17:39;;;;;;;5.93;4.30;;;8.10;73.30;;;-142.21;100.00;112049.66;5070326;28;20530;-70
2022/11/25 04:20:10;;;;;;;4.20;2.93;;;8.10;73.50;;;-142.21;100.00;112049.66;5070685;28;20467;-71
2022/11/25 04:22:37;;;;;;;4.20;3.20;;;8.00;73.60;;;-142.21;100.00;112049.66;5070597;28;20463;-70
2022/11/25 04:25:06;;;;;;;3.50;2.90;;;8.00;73.20;;;-142.21;100.00;112049.66;5070643;28;20582;-71
2022/11/25 04:27:33;;;;;;;5.60;2.50;;;8.00;73.40;;;-142.21;100.00;112049.66;5069443;28;20479;-70
2022/11/25 04:30:03;;;;;;;4.83;2.80;;;8.00;73.20;;;-142.21;100.00;112049.66;5072295;28;20477;-71
2022/11/25 04:32:31;;;;;;;3.40;2.90;;;8.00;73.80;;;-142.21;100.00;112049.66;5070349;28;20483;-71
2022/11/25 04:34:58;;;;;;;5.53;2.97;;;7.90;73.00;;;-142.21;100.00;112049.66;5070720;28;20535;-71
2022/11/25 04:37:26;;;;;;;4.40;3.00;;;8.00;73.00;;;-142.21;100.00;112049.66;5072785;28;20799;-71
2022/11/25 04:39:53;;;;;;;6.00;3.10;;;7.90;73.00;;;-142.21;100.00;112049.66;5074305;28;20534;-70
2022/11/25 04:42:33;;;;;;;3.33;2.80;;;7.80;72.70;;;-142.21;100.00;112049.66;5074604;28;20475;-71
2022/11/25 04:45:05;;;;;;;3.90;2.97;;;7.90;73.10;;;-142.21;100.00;112049.66;5074655;28;20825;-71
2022/11/25 04:47:33;;;;;;;3.93;3.00;;;7.90;73.30;;;-142.21;100.00;112049.66;5073735;28;20530;-71
2022/11/25 04:50:00;;;;;;;5.87;3.00;;;7.80;73.00;;;-142.21;100.00;112049.66;5074808;28;20443;-71
2022/11/25 04:52:29;;;;;;;4.10;2.70;;;7.70;73.20;;;-142.21;100.00;112049.66;5073607;28;20479;-71
2022/11/25 04:54:56;;;;;;;3.83;2.87;;;7.70;73.30;;;-142.21;100.00;112049.66;5074695;28;20530;-71
2022/11/25 04:57:23;;;;;;;4.57;2.97;;;7.70;73.50;;;-142.21;100.00;112049.66;5074419;28;20549;-71
2022/11/25 04:59:53;;;;;;;4.90;3.00;;;7.70;73.50;;;-142.21;100.00;112049.66;5074369;28;20625;-71
2022/11/25 05:02:23;;;;;;;3.77;3.03;;;7.70;73.50;;;-142.21;100.00;112049.66;5073635;28;20487;-71
2022/11/25 05:04:57;;;;;;;3.67;3.37;;;7.70;73.90;;;-142.21;100.00;112049.66;5073844;28;20453;-71
2022/11/25 05:07:27;;;;;;;5.00;3.07;;;7.70;73.80;;;-142.21;100.00;112049.66;5074176;28;20514;-71
2022/11/25 05:09:56;;;;;;;6.27;2.93;;;7.70;73.70;;;-142.21;100.00;112049.66;5074210;28;20485;-71
2022/11/25 05:12:27;;;;;;;4.43;3.27;;;7.60;73.40;;;-142.21;100.00;112049.66;5074282;28;20538;-71
2022/11/25 05:14:55;;;;;;;4.70;3.30;;;7.60;73.10;;;-142.21;100.00;112049.66;5073828;28;20935;-70
2022/11/25 05:17:25;;;;;;;6.63;3.20;;;7.60;73.30;;;-142.21;100.00;112049.66;5068042;28;20813;-71
2022/11/25 05:19:57;;;;;;;4.13;3.30;;;7.60;73.50;;;-142.21;100.00;112049.66;5074063;28;20467;-71
2022/11/25 05:22:27;;;;;;;4.97;3.70;;;7.60;73.60;;;-142.21;100.00;112049.66;5073827;28;20450;-71
2022/11/25 05:24:57;;;;;;;5.20;3.40;;;7.50;73.40;;;-142.21;100.00;112049.66;5053436;28;20574;-71
2022/11/25 05:27:26;;;;;;;3.90;3.47;;;7.60;73.60;;;-142.21;100.00;112049.66;5073730;28;20806;-71
2022/11/25 05:29:54;;;;;;;5.40;3.47;;;7.60;73.50;;;-142.21;100.00;112049.66;5073306;28;20443;-70
2022/11/25 05:32:23;;;;;;;5.07;4.07;;;7.60;73.30;;;-142.21;100.00;112049.66;5073269;28;20539;-70
2022/11/25 05:34:51;;;;;;;4.13;3.40;;;7.60;73.50;;;-142.21;100.00;112049.66;5073805;28;20447;-71
2022/11/25 05:37:18;;;;;;;6.20;3.50;;;7.50;73.10;;;-142.21;100.00;112049.66;5073630;28;20446;-71
2022/11/25 05:39:45;;;;;;;5.60;3.57;;;7.50;73.00;;;-142.21;100.00;112049.66;5072960;28;20513;-71
2022/11/25 05:42:14;;;;;;;4.93;3.53;;;7.50;72.90;;;-142.21;100.00;112049.66;5073640;28;20482;-71
2022/11/25 05:44:41;;;;;;;4.27;3.43;;;7.50;73.10;;;-142.21;100.00;112049.66;5072679;28;20803;-68
2022/11/25 05:47:08;;;;;;;6.27;3.67;;;7.50;73.20;;;-142.21;100.00;112049.66;5073255;28;20570;-68
2022/11/25 05:49:37;;;;;;;4.13;3.40;;;7.50;73.10;;;-142.21;100.00;112049.66;5071783;28;20944;-72
2022/11/25 05:52:05;;;;;;;5.73;3.37;;;7.50;72.80;;;-142.21;100.00;112049.66;5073424;28;20444;-72
2022/11/25 05:54:35;;;;;;;6.03;3.50;;;7.40;72.70;;;-142.21;100.00;112049.66;5072747;28;20497;-72
2022/11/25 05:57:05;;;;;;;3.57;2.93;;;7.40;72.70;;;-142.21;100.00;112049.66;5073318;28;20469;-73
2022/11/25 05:59:33;;;;;;;4.67;3.70;;;7.40;73.00;;;-142.21;100.00;112049.66;5072617;28;20534;-74
2022/11/25 06:02:01;;;;;;;4.27;3.33;;;7.50;73.50;;;-142.21;100.00;112049.66;5073391;28;20455;-74
2022/11/25 06:04:28;;;;;;;8.70;3.60;;;7.40;73.50;;;-142.21;100.00;112049.66;5072194;28;20447;-74
2022/11/25 06:06:59;;;;;;;5.97;3.93;;;7.40;73.90;;;-142.21;100.00;112049.66;5072155;28;20519;-74
2022/11/25 06:09:27;;;;;;;4.57;3.60;;;7.40;74.00;;;-142.21;100.00;112049.66;5072023;28;20439;-74
2022/11/25 06:11:54;;;;;;;4.37;3.97;;;7.40;74.20;;;-142.21;100.00;112049.66;5072360;28;20446;-72
2022/11/25 06:14:21;;;;;;;4.93;4.07;;;7.40;74.30;;;-142.21;100.00;112049.66;5071964;28;20450;-73
2022/11/25 06:16:51;;;;;;;4.07;3.40;;;7.50;74.50;;;-142.21;100.00;112049.66;5071831;28;20469;-73
2022/11/25 06:19:18;;;;;;;3.77;3.37;;;7.50;74.50;;;-142.21;100.00;112049.66;5065748;28;20467;-72
2022/11/25 06:21:45;;;;;;;5.10;3.70;;;7.50;74.80;;;-142.21;100.00;112049.66;5072159;28;20479;-72
2022/11/25 06:24:12;;;;;;;4.87;3.97;;;7.40;74.80;;;-142.21;100.00;112049.66;5071915;28;20482;-72
2022/11/25 06:26:40;;;;;;;4.07;3.53;;;7.50;74.90;;;-142.21;100.00;112049.66;5071904;28;20521;-72
2022/11/25 06:29:07;;;;;;;4.77;3.40;;;7.60;75.00;;;-142.21;100.00;112049.66;5071783;28;20509;-71
2022/11/25 06:31:34;;;;;;;5.13;3.27;;;7.60;75.00;;;-142.21;100.00;112049.66;5071499;28;20985;-69
2022/11/25 06:34:05;;;;;;;5.03;3.50;;;7.60;75.10;;;-142.21;100.00;112049.66;5072565;28;20475;-67
2022/11/25 06:36:32;;;;;;;6.53;3.57;;;7.70;75.20;;;-142.21;100.00;112049.66;5071801;28;20432;-69
2022/11/25 06:38:59;;;;;;;3.67;3.10;;;7.70;75.80;;;-142.21;100.00;112049.66;5072295;28;20477;-69
2022/11/25 06:41:26;;;;;;;4.23;3.23;;;7.70;75.00;;;-142.21;100.00;112049.66;5072476;28;20447;-70
2022/11/25 06:43:53;;;;;;;4.37;3.20;;;7.70;75.20;;;-142.21;100.00;112049.66;5063578;28;20877;-68
2022/11/25 06:46:21;;;;;;;6.33;3.60;;;7.80;75.30;;;-142.21;100.00;112049.66;5072024;28;20490;-68
2022/11/25 06:48:51;;;;;;;6.60;3.30;;;7.80;75.50;;;-142.21;100.00;112049.66;5071812;28;20443;-68
2022/11/25 06:51:19;;;;;;;5.00;3.50;;;7.80;75.70;;;-142.21;100.00;112049.66;5072132;28;20935;-68
2022/11/25 06:53:47;;;;;;;5.00;3.40;;;7.90;75.90;;;-142.21;100.00;112049.66;5071142;28;20746;-68
2022/11/25 06:56:17;;;;;;;5.50;4.00;;;7.90;76.60;;;-142.21;100.00;112049.66;5071221;28;20530;-67
2022/11/25 06:58:46;;;;;;;5.07;4.17;;;7.90;76.00;;;-142.21;100.00;112049.66;5072303;28;20443;-67
2022/11/25 07:01:15;;;;;;;8.17;4.97;;;8.00;76.20;;;-142.21;100.00;112049.66;5070671;28;20519;-68
2022/11/25 07:03:43;;;;;;;5.40;4.40;;;8.00;76.30;;;-142.21;100.00;112049.66;5070267;28;20537;-68
2022/11/25 07:06:13;;;;;;;5.87;4.70;;;8.10;76.40;;;-142.21;100.00;112049.66;5071784;28;20479;-68
2022/11/25 07:08:42;;;;;;;5.77;4.40;;;8.00;76.30;;;-142.21;100.00;112049.66;5071174;28;20486;-68
2022/11/25 07:11:16;;;;;;;9.37;4.27;;;8.10;76.60;;;-142.21;100.00;112049.66;5071174;28;20460;-67
2022/11/25 07:13:47;;;;;;;6.43;4.47;;;8.10;76.40;;;-142.21;100.00;112049.66;5070173;28;20447;-67
2022/11/25 07:16:15;;;;;;;7.30;4.63;;;8.10;76.40;;;-142.21;100.00;112049.66;5070330;28;20931;-67
2022/11/25 07:18:43;;;;;;;7.17;4.73;;;8.20;76.50;;;-142.21;100.00;112049.66;5071621;28;20466;-67
2022/11/25 07:21:14;;;;;;;6.07;3.77;;;8.20;76.40;;;-142.21;100.00;112049.66;5071334;28;20451;-68
2022/11/25 07:23:45;;;;;;;5.00;3.47;;;8.20;76.70;;;-142.21;100.00;112049.66;5070897;28;20893;-68
2022/11/25 07:26:20;;;;;;;5.77;3.50;;;8.10;76.70;;;-142.21;100.00;112049.66;5071248;28;20566;-67
2022/11/25 07:28:48;;;;;;;5.73;3.80;;;8.10;76.90;;;-142.21;100.00;112049.66;5070042;28;20443;-68
2022/11/25 07:31:20;;;;;;;6.70;3.60;;;8.10;76.90;;;-142.21;100.00;112049.66;5070435;28;20439;-68
2022/11/25 07:33:48;;;;;;;5.63;3.57;;;8.20;77.00;;;-142.21;100.00;112049.66;5058147;28;20530;-67
2022/11/25 07:36:15;;;;;;;5.00;3.40;;;8.20;76.90;;;-142.21;100.00;112049.66;5070465;28;20527;-68
2022/11/25 07:38:44;;;;;;;4.90;3.23;;;8.20;77.30;;;-142.21;100.00;112049.66;5070773;28;20443;-68
2022/11/25 07:41:14;;;;;;;4.70;3.50;;;8.20;77.70;;;-142.21;100.00;112049.66;5070834;28;20852;-67
2022/11/25 07:43:44;;;;;;;4.83;3.07;;;8.20;78.20;;;-142.21;100.00;112049.66;5071144;28;20787;-68
2022/11/25 07:46:19;;;;;;;5.27;3.23;;;8.20;78.40;;;-142.21;100.00;112049.66;5071783;28;20489;-68
2022/11/25 07:48:47;;;;;;;4.53;3.33;;;8.20;78.10;;;-142.21;100.00;112049.66;5071302;28;20455;-68
2022/11/25 07:51:16;;;;;;;4.83;3.27;;;8.40;78.30;;;-142.21;100.00;112049.66;5071517;28;20486;-68
2022/11/25 07:53:45;;;;;;;4.33;3.10;;;8.40;78.40;;;-142.21;100.00;112049.66;5070463;28;20483;-68
2022/11/25 07:56:13;;;;;;;5.37;3.47;;;8.50;78.40;;;-142.21;100.00;112049.66;5070703;28;20443;-68
2022/11/25 07:58:40;;;;;;;5.63;3.40;;;8.60;78.10;;;-142.21;100.00;112049.66;5070935;28;20461;-68
2022/11/25 08:01:11;;;;;;;4.10;3.00;;;8.70;78.20;;;-142.21;100.00;112049.66;5071394;28;20534;-68
2022/11/25 08:03:43;;;;;;;4.57;3.37;;;8.70;78.30;;;-142.21;100.00;112049.66;5070968;28;20482;-68
2022/11/25 08:06:16;;;;;;;6.20;4.57;;;8.80;78.20;;;-142.21;100.00;112049.66;5071011;28;20503;-68
2022/11/25 08:08:45;;;;;;;8.63;5.63;;;8.80;78.50;;;-142.21;100.00;112049.66;5070772;28;20800;-68
2022/11/25 08:11:18;;;;;;;9.13;5.47;;;8.90;78.70;;;-142.21;100.00;112049.66;5071085;28;20535;-68
2022/11/25 08:13:46;;;;;;;5.70;4.40;;;8.90;78.70;;;-142.21;100.00;112049.66;5074821;28;20428;-68
2022/11/25 08:16:15;;;;;;;5.00;3.33;;;8.90;78.50;;;-142.21;100.00;112049.66;5075263;28;20841;-68
2022/11/25 08:18:43;;;;;;;6.20;3.10;;;8.90;79.00;;;-142.21;100.00;112049.66;5074373;28;20512;-68
2022/11/25 08:21:13;;;;;;;4.37;2.90;;;8.90;79.10;;;-142.21;100.00;112049.66;5075466;28;20485;-68
2022/11/25 08:23:42;;;;;;;4.00;2.77;;;8.90;79.40;;;-142.21;100.00;112049.66;5074384;28;20447;-68
2022/11/25 08:26:14;;;;;;;4.10;3.03;;;9.00;79.30;;;-142.21;100.00;112049.66;5074991;28;21133;-68
2022/11/25 08:28:42;;;;;;;3.70;2.73;;;9.10;79.20;;;-142.21;100.00;112049.66;5074713;28;20525;-67
2022/11/25 08:31:13;;;;;;;5.57;2.97;;;9.10;79.00;;;-142.21;100.00;112049.66;5075103;28;20443;-68
2022/11/25 08:33:40;;;;;;;5.30;2.87;;;9.10;78.90;;;-142.21;100.00;112049.66;5074685;28;20432;-68
2022/11/25 08:36:09;;;;;;;4.80;2.63;;;9.20;78.90;;;-142.21;100.00;112049.66;5074985;28;20494;-68
2022/11/25 08:38:36;;;;;;;5.10;2.60;;;9.20;79.60;;;-142.21;100.00;112049.66;5073870;28;21006;-68
2022/11/25 08:41:11;;;;;;;6.27;2.50;;;9.20;78.70;;;-142.21;100.00;112049.66;5074798;28;20531;-68
2022/11/25 08:43:38;;;;;;;3.87;2.43;;;9.30;78.80;;;-142.21;100.00;112049.66;5074135;28;20430;-69
2022/11/25 08:46:10;;;;;;;3.93;2.50;;;9.30;78.70;;;-142.21;100.00;112049.66;5074546;28;20443;-68
2022/11/25 08:48:38;;;;;;;3.43;2.87;;;9.40;78.80;;;-142.21;100.00;112049.66;5074175;28;20455;-67
2022/11/25 08:51:10;;;;;;;4.03;2.87;;;9.40;78.80;;;-142.21;100.00;112049.66;5074867;28;20451;-68
2022/11/25 08:53:39;;;;;;;6.83;5.10;;;9.40;79.10;;;-142.21;100.00;112049.66;5073479;28;20427;-68
2022/11/25 08:56:08;;;;;;;9.77;6.00;;;9.50;79.20;;;-142.21;100.00;112049.66;5074356;28;20453;-68
2022/11/25 08:58:37;;;;;;;6.80;4.50;;;9.50;79.10;;;-142.21;100.00;112049.66;5074402;28;20471;-68
2022/11/25 09:01:06;;;;;;;5.70;4.60;;;9.60;79.30;;;-142.21;100.00;112049.66;5074376;28;20449;-68
2022/11/25 09:03:34;;;;;;;7.07;4.00;;;9.70;79.20;;;-142.21;100.00;112049.66;5074342;28;20475;-68
2022/11/25 09:06:02;;;;;;;7.77;4.50;;;9.70;79.10;;;-142.21;100.00;112049.66;5073489;28;20451;-68
2022/11/25 09:08:30;;;;;;;7.33;4.97;;;9.70;79.30;;;-142.21;100.00;112049.66;5073966;28;20483;-68
2022/11/25 09:10:57;;;;;;;7.63;4.80;;;9.80;79.50;;;-142.21;100.00;112049.66;5073944;28;20822;-68
2022/11/25 09:13:25;;;;;;;5.73;3.80;;;9.80;79.40;;;-142.21;100.00;112049.66;5074305;28;20528;-68
2022/11/25 09:15:54;;;;;;;9.43;6.50;;;9.90;79.30;;;-142.21;100.00;112049.66;5073463;28;21273;-67
2022/11/25 09:18:24;;;;;;;9.43;6.50;;;9.90;79.20;;;-142.21;100.00;112049.66;5074225;28;20455;-68
2022/11/25 09:20:53;;;;;;;7.50;5.50;;;9.90;79.20;;;-142.21;100.00;112049.66;5073446;28;20481;-68
2022/11/25 09:23:22;;;;;;;8.87;5.53;;;10.00;77.90;;;-142.21;100.00;112049.66;5073323;28;21042;-68
2022/11/25 09:25:53;;;;;;;5.53;2.80;;;10.00;78.00;;;-142.21;100.00;112049.66;5073311;28;20475;-67
2022/11/25 09:28:20;;;;;;;4.63;2.60;;;10.00;78.20;;;-142.21;100.00;112049.66;5073933;28;20463;-68
2022/11/25 09:30:48;;;;;;;4.27;2.87;;;10.00;78.80;;;-142.21;100.00;112049.66;5073480;28;20463;-68
2022/11/25 09:33:17;;;;;;;4.30;2.90;;;9.90;80.20;;;-142.21;100.00;112049.66;5074148;28;20444;-68
2022/11/25 09:35:45;;;;;;;6.53;3.27;;;9.90;80.50;;;-142.21;100.00;112049.66;5072865;28;20530;-69
2022/11/25 09:38:13;;;;;;;5.23;2.83;;;9.90;80.90;;;-142.21;100.00;112049.66;5073750;28;20446;-67
2022/11/25 09:40:51;;;;;;;7.63;3.40;;;10.00;79.70;;;-142.21;100.00;112049.66;5072978;28;20479;-68
2022/11/25 09:46:56;;;;;;;4.07;2.90;;;10.10;80.00;;;-142.21;100.00;112049.66;5073648;28;20900;-68
2022/11/25 09:49:51;;;;;;;4.27;3.00;;;10.20;80.20;;;-142.21;100.00;112049.66;5038435;28;20451;-68
2022/11/25 09:52:48;;;;;;;6.00;3.30;;;10.20;80.60;;;-142.21;100.00;112049.66;5073108;28;20927;-68
2022/11/25 09:55:20;;;;;;;6.10;3.60;;;10.20;80.60;;;-142.21;100.00;112049.66;5073357;28;20967;-68
2022/11/25 09:58:03;;;;;;;6.60;3.00;;;10.30;81.00;;;-142.21;100.00;112049.66;5073187;28;20424;-68
2022/11/25 10:00:39;;;;;;;9.03;4.23;;;10.40;81.10;;;-142.21;100.00;112049.66;5073564;28;20485;-69
2022/11/25 10:03:22;;;;;;;4.80;3.23;;;10.50;81.70;;;-142.21;100.00;112049.66;5073767;28;20450;-68
2022/11/25 10:06:01;;;;;;;7.27;3.87;;;10.50;81.80;;;-142.21;100.00;112049.66;5072588;28;20463;-69
2022/11/25 10:08:35;;;;;;;5.27;3.20;;;10.50;82.40;;;-142.21;100.00;112049.66;5072665;28;20557;-69
2022/11/25 10:11:22;;;;;;;6.67;3.27;;;10.50;82.30;;;-142.21;100.00;112049.66;5073005;28;20847;-68
2022/11/25 10:13:57;;;;;;;4.93;3.57;;;10.50;82.50;;;-142.21;100.00;112049.66;5072407;28;20519;-69
2022/11/25 10:16:38;;;;;;;6.27;3.63;;;10.60;82.60;;;-142.21;100.00;112049.66;5073400;28;20885;-69
2022/11/25 10:19:21;;;;;;;3.93;3.33;;;10.60;82.70;;;-142.21;100.00;112049.66;5072658;28;20540;-68
2022/11/25 10:21:50;;;;;;;8.07;3.73;;;10.60;83.00;;;-142.21;100.00;112049.66;5072147;28;20493;-68